createdAt,value
2022-07-25T00:04:04.818Z,61.42
2022-07-25T00:09:02.105Z,61.50
2022-07-25T00:13:59.189Z,60.65
2022-07-25T00:18:56.771Z,61.89
2022-07-25T00:23:54.029Z,61.28
2022-07-25T00:28:54.347Z,63.32
2022-07-25T00:33:51.274Z,65.24
2022-07-25T00:38:49.151Z,63.58
2022-07-25T00:43:46.386Z,65.23
2022-07-25T00:48:43.646Z,66.83
2022-07-25T00:53:40.514Z,67.44
2022-07-25T00:58:38.143Z,67.46
2022-07-25T01:03:35.254Z,67.00
2022-07-25T01:08:32.273Z,66.82
2022-07-25T01:13:31.886Z,67.88
2022-07-25T01:18:29.529Z,69.71
2022-07-25T01:23:29.803Z,70.58
2022-07-25T01:28:28.681Z,70.82
2022-07-25T01:33:25.668Z,71.76
2022-07-25T01:38:22.473Z,71.34
2022-07-25T01:43:20.107Z,72.35
2022-07-25T01:48:19.921Z,70.18
2022-07-25T01:53:17.096Z,68.70
2022-07-25T01:58:14.194Z,68.54
2022-07-25T02:03:30.277Z,68.49
2022-07-25T02:08:27.543Z,67.17
2022-07-25T02:13:26.761Z,66.35
2022-07-25T02:18:25.057Z,65.24
2022-07-25T02:23:22.244Z,63.67
2022-07-25T02:28:19.207Z,62.78
2022-07-25T02:33:18.500Z,62.21
2022-07-25T02:38:19.258Z,61.03
2022-07-25T02:43:32.596Z,61.25
2022-07-25T02:48:29.726Z,61.50
2022-07-25T02:53:54.384Z,61.26
2022-07-25T02:58:44.585Z,61.30
2022-07-25T03:03:46.624Z,61.83
2022-07-25T03:08:44.447Z,61.55
2022-07-25T03:13:43.288Z,61.50
2022-07-25T03:18:40.163Z,62.99
2022-07-25T03:23:40.161Z,62.78
2022-07-25T03:28:38.030Z,61.73
2022-07-25T03:33:35.100Z,62.54
2022-07-25T03:38:32.055Z,61.82
2022-07-25T03:43:31.597Z,61.24
2022-07-25T03:48:29.505Z,62.75
2022-07-25T03:53:26.531Z,64.24
2022-07-25T03:58:23.699Z,63.44
2022-07-25T04:03:29.856Z,63.46
2022-07-25T04:08:27.509Z,61.58
2022-07-25T04:13:24.579Z,58.47
2022-07-25T04:18:25.205Z,56.92
2022-07-25T04:23:25.841Z,58.76
2022-07-25T04:28:23.468Z,60.35
2022-07-25T04:33:22.593Z,61.21
2022-07-25T04:38:19.624Z,62.16
2022-07-25T04:43:17.158Z,62.59
2022-07-25T04:48:14.872Z,62.59
2022-07-25T04:53:11.793Z,59.68
2022-07-25T04:58:10.358Z,57.24
2022-07-25T05:03:08.826Z,57.60
2022-07-25T05:08:06.647Z,59.02
2022-07-25T05:13:03.738Z,58.96
2022-07-25T05:18:03.688Z,60.32
2022-07-25T05:23:00.779Z,60.47
2022-07-25T05:27:59.136Z,58.93
2022-07-25T05:32:56.152Z,59.39
2022-07-25T05:37:57.765Z,59.21
2022-07-25T05:43:20.848Z,59.67
2022-07-25T05:48:55.582Z,57.53
2022-07-25T05:53:56.274Z,59.26
2022-07-25T05:59:02.848Z,61.51
2022-07-25T06:04:05.059Z,60.98
2022-07-25T06:09:19.561Z,60.91
2022-07-25T06:14:18.681Z,60.28
2022-07-25T06:19:18.407Z,60.61
2022-07-25T06:24:16.070Z,60.00
2022-07-25T06:29:14.316Z,58.99
2022-07-25T06:34:11.532Z,60.65
2022-07-25T06:39:12.800Z,60.26
2022-07-25T06:44:14.831Z,59.72
2022-07-25T06:49:12.199Z,58.71
2022-07-25T06:54:11.103Z,59.82
2022-07-25T06:59:11.509Z,58.96
2022-07-25T07:04:23.917Z,59.02
2022-07-25T07:09:28.547Z,58.46
2022-07-25T07:14:26.960Z,58.34
2022-07-25T07:19:27.402Z,57.14
2022-07-25T07:24:26.503Z,57.69
2022-07-25T07:29:27.020Z,58.27
2022-07-25T07:34:29.855Z,57.92
2022-07-25T07:39:29.534Z,56.38
2022-07-25T07:44:26.547Z,56.38
2022-07-25T07:49:24.653Z,57.17
2022-07-25T07:54:41.666Z,56.60
2022-07-25T07:59:41.196Z,55.81
2022-07-25T08:04:41.491Z,54.32
2022-07-25T08:09:39.324Z,53.87
2022-07-25T08:14:56.235Z,54.52
2022-07-25T08:20:27.586Z,52.75
2022-07-25T08:25:22.924Z,51.59
2022-07-25T08:30:20.521Z,49.81
2022-07-25T08:35:19.371Z,50.57
2022-07-25T08:40:18.437Z,52.80
2022-07-25T08:45:26.682Z,51.75
2022-07-25T08:50:42.963Z,50.71
2022-07-25T08:55:45.732Z,50.44
2022-07-25T09:00:52.778Z,50.42
2022-07-25T09:05:50.337Z,48.20
2022-07-25T09:10:52.357Z,46.64
2022-07-25T09:15:50.067Z,46.08
2022-07-25T09:20:48.635Z,46.33
2022-07-25T09:25:45.652Z,45.71
2022-07-25T09:31:04.929Z,44.96
2022-07-25T09:36:14.435Z,45.08
2022-07-25T09:41:17.649Z,46.09
2022-07-25T09:46:30.018Z,45.27
2022-07-25T09:51:27.349Z,44.64
2022-07-25T09:56:26.932Z,43.90
2022-07-25T10:01:37.303Z,43.20
2022-07-25T10:06:41.348Z,43.20
2022-07-25T10:11:40.598Z,42.68
2022-07-25T10:16:49.655Z,43.05
2022-07-25T10:21:54.697Z,43.70
2022-07-25T10:26:52.555Z,44.61
2022-07-25T10:31:53.126Z,45.46
2022-07-25T10:36:51.254Z,44.17
2022-07-25T10:41:51.833Z,42.31
2022-07-25T10:46:49.780Z,40.82
2022-07-25T10:52:02.574Z,40.70
2022-07-25T10:56:59.968Z,41.31
2022-07-25T11:01:57.020Z,40.11
2022-07-25T11:06:57.446Z,40.50
2022-07-25T11:11:55.865Z,40.93
2022-07-25T11:16:55.566Z,41.37
2022-07-25T11:21:54.113Z,40.38
2022-07-25T11:26:52.309Z,41.03
2022-07-25T11:31:53.606Z,41.18
2022-07-25T11:36:56.699Z,40.09
2022-07-25T11:42:04.824Z,41.56
2022-07-25T11:47:03.477Z,41.71
2022-07-25T11:52:04.598Z,41.48
2022-07-25T11:57:01.654Z,39.50
2022-07-25T12:02:03.538Z,39.25
2022-07-25T12:07:04.637Z,38.86
2022-07-25T12:12:03.087Z,39.01
2022-07-25T12:17:03.697Z,38.71
2022-07-25T12:22:00.682Z,38.71
2022-07-25T12:26:57.661Z,38.01
2022-07-25T12:31:55.027Z,37.45
2022-07-25T12:36:55.751Z,37.83
2022-07-25T12:41:53.779Z,37.04
2022-07-25T12:47:03.845Z,38.00
2022-07-25T12:52:01.609Z,36.40
2022-07-25T12:56:58.679Z,36.85
2022-07-25T13:01:57.657Z,36.82
2022-07-25T13:07:02.761Z,37.08
2022-07-25T13:12:01.594Z,35.82
2022-07-25T13:22:29.771Z,36.33
2022-07-25T13:27:28.152Z,34.55
2022-07-25T13:32:37.360Z,34.80
2022-07-25T13:37:37.054Z,34.63
2022-07-25T13:42:34.816Z,34.00
2022-07-25T13:47:36.620Z,35.11
2022-07-25T13:52:37.361Z,34.09
2022-07-25T13:57:51.974Z,35.08
2022-07-25T14:02:52.563Z,34.14
2022-07-25T14:07:51.986Z,35.91
2022-07-25T14:12:56.302Z,35.01
2022-07-25T14:17:57.683Z,34.35
2022-07-25T14:22:55.368Z,33.97
2022-07-25T14:27:55.777Z,34.09
2022-07-25T14:33:02.094Z,33.94
2022-07-25T14:38:01.680Z,34.65
2022-07-25T14:43:13.095Z,33.68
2022-07-25T14:53:42.301Z,33.11
2022-07-25T14:58:55.436Z,32.84
2022-07-25T15:03:57.122Z,32.36
2022-07-25T15:09:03.094Z,30.42
2022-07-25T15:14:12.335Z,31.30
2022-07-25T15:19:18.216Z,31.42
2022-07-25T15:25:06.352Z,31.66
2022-07-25T15:30:14.578Z,32.22
2022-07-25T15:41:48.247Z,32.86
2022-07-25T15:47:30.220Z,32.23
2022-07-25T15:58:36.589Z,32.40
2022-07-25T16:03:43.275Z,32.48
2022-07-25T16:09:01.402Z,33.07
2022-07-25T16:14:05.002Z,31.83
2022-07-25T16:19:07.377Z,32.49
2022-07-25T16:24:21.814Z,32.38
2022-07-25T16:34:43.853Z,32.14
2022-07-25T16:39:49.608Z,31.87
2022-07-25T16:44:49.756Z,32.37
2022-07-25T16:50:00.333Z,32.46
2022-07-25T16:55:00.379Z,33.11
2022-07-25T17:00:02.856Z,33.02
2022-07-25T17:05:12.018Z,32.20
2022-07-25T17:10:12.100Z,32.10
2022-07-25T17:15:17.143Z,32.42
2022-07-25T17:20:30.616Z,32.22
2022-07-25T17:25:50.631Z,32.23
2022-07-25T17:30:51.356Z,32.44
2022-07-25T17:41:24.492Z,32.75
2022-07-25T17:46:35.480Z,32.61
2022-07-25T17:51:42.285Z,32.75
2022-07-25T17:56:44.976Z,32.08
2022-07-25T18:02:35.154Z,32.67
2022-07-25T18:14:25.955Z,32.31
2022-07-25T18:19:59.269Z,32.28
2022-07-25T18:25:24.132Z,32.88
2022-07-25T18:30:52.036Z,33.23
2022-07-25T18:36:27.145Z,33.28
2022-07-25T18:53:29.619Z,33.05
2022-07-25T18:59:07.712Z,32.72
2022-07-25T19:10:07.807Z,33.17
2022-07-25T19:15:28.898Z,32.83
2022-07-25T19:20:38.615Z,32.76
2022-07-25T19:26:39.198Z,32.97
2022-07-25T19:32:10.998Z,33.20
2022-07-25T19:37:17.745Z,32.85
2022-07-25T19:42:32.248Z,33.09
2022-07-25T19:47:41.158Z,33.31
2022-07-25T19:52:48.326Z,33.13
2022-07-25T19:57:57.243Z,33.97
2022-07-25T20:03:01.669Z,34.73
2022-07-25T20:08:34.908Z,35.24
2022-07-25T20:13:32.618Z,35.17
2022-07-25T20:18:45.643Z,36.03
2022-07-25T20:24:09.813Z,36.89
2022-07-25T20:29:29.140Z,36.99
2022-07-25T20:34:34.411Z,36.75
2022-07-25T20:39:38.332Z,36.31
2022-07-25T20:44:39.342Z,36.00
2022-07-25T20:49:54.731Z,35.91
2022-07-25T20:55:06.848Z,36.16
2022-07-25T21:00:55.742Z,36.54
2022-07-25T21:06:05.840Z,36.25
2022-07-25T21:11:10.896Z,36.54
2022-07-25T21:16:08.161Z,36.35
2022-07-25T21:21:28.801Z,36.85
2022-07-25T21:26:55.996Z,36.96
2022-07-25T21:32:12.053Z,37.31
2022-07-25T21:37:09.629Z,38.21
2022-07-25T21:42:23.160Z,38.39
2022-07-25T21:47:20.109Z,39.03
2022-07-25T21:52:30.385Z,38.71
2022-07-25T21:57:41.947Z,38.79
2022-07-25T22:03:02.812Z,38.64
2022-07-25T22:08:04.496Z,38.86
2022-07-25T22:13:13.526Z,38.60
2022-07-25T22:18:14.510Z,37.60
2022-07-25T22:23:15.039Z,36.60
2022-07-25T22:28:20.667Z,35.83
2022-07-25T22:33:29.401Z,36.16
2022-07-25T22:38:26.542Z,41.67
2022-07-25T22:43:56.717Z,42.90
2022-07-25T22:49:01.901Z,42.55
2022-07-25T22:54:19.752Z,42.22
2022-07-25T22:59:18.868Z,41.64
2022-07-25T23:04:29.933Z,41.43
2022-07-25T23:09:36.011Z,41.08
2022-07-25T23:14:42.985Z,41.19
2022-07-25T23:20:09.055Z,41.32
2022-07-25T23:25:07.976Z,41.23
2022-07-25T23:30:17.096Z,40.66
2022-07-25T23:35:32.071Z,41.91
2022-07-25T23:40:43.103Z,42.18
2022-07-25T23:45:53.607Z,41.79
2022-07-25T23:51:06.960Z,41.11
2022-07-25T23:56:21.108Z,41.42
